Time;durP1;ratioP1;P1;durP2;ratioP2;P2;SDS_P1;SDS_P2;PMS_P1;PMS_P2;Temp;Humidity;BMP_temperature;BMP_pressure;BME280_temperature;BME280_humidity;BME280_pressure;Samples;Min_cycle;Max_cycle;Signal;HPM_P1;HPM_P2
2023/05/30 00:00:59;;;;;;;5.45;2.95;;;17.10;99.90;;;;;;5060400;28;20086;-73
2023/05/30 00:03:25;;;;;;;5.13;2.55;;;17.10;99.90;;;;;;5050599;28;20044;-74
2023/05/30 00:05:51;;;;;;;4.90;2.50;;;17.10;99.90;;;;;;5048819;28;20033;-74
2023/05/30 00:08:16;;;;;;;6.18;2.75;;;17.30;99.90;;;;;;5052436;28;20025;-74
2023/05/30 00:10:42;;;;;;;4.20;2.08;;;17.40;99.90;;;;;;5053017;28;20052;-74
2023/05/30 00:13:08;;;;;;;5.43;2.95;;;17.10;99.90;;;;;;5052901;28;20088;-73
2023/05/30 00:15:33;;;;;;;4.55;2.40;;;17.00;99.90;;;;;;5055500;28;20029;-74
2023/05/30 00:18:00;;;;;;;4.63;2.15;;;17.00;99.90;;;;;;5053663;28;20033;-74
2023/05/30 00:20:29;;;;;;;5.43;3.03;;;17.00;99.90;;;;;;5051094;28;20032;-74
2023/05/30 00:22:58;;;;;;;6.13;2.60;;;17.00;99.90;;;;;;5056130;28;20025;-74
2023/05/30 00:25:24;;;;;;;3.63;1.88;;;17.00;99.90;;;;;;5055392;28;20534;-73
2023/05/30 00:27:50;;;;;;;12.38;3.53;;;16.80;99.90;;;;;;5053442;28;20025;-74
2023/05/30 00:30:16;;;;;;;4.55;2.22;;;16.80;99.90;;;;;;5055994;28;20044;-74
2023/05/30 00:32:42;;;;;;;8.68;2.67;;;16.80;99.90;;;;;;5049871;28;20496;-74
2023/05/30 00:35:08;;;;;;;5.38;2.67;;;16.60;99.90;;;;;;5051180;28;20032;-74
2023/05/30 00:37:34;;;;;;;5.68;2.90;;;16.60;99.90;;;;;;5050748;28;20029;-74
2023/05/30 00:39:59;;;;;;;6.60;2.78;;;16.70;99.90;;;;;;5047183;28;20561;-74
2023/05/30 00:42:28;;;;;;;6.15;2.30;;;16.40;99.90;;;;;;5058463;28;20398;-73
2023/05/30 00:44:54;;;;;;;5.10;2.25;;;16.40;99.90;;;;;;5052328;28;20064;-73
2023/05/30 00:47:20;;;;;;;4.93;2.75;;;16.40;99.90;;;;;;5049455;28;20071;-73
2023/05/30 00:49:47;;;;;;;5.57;2.53;;;16.70;99.90;;;;;;5051874;28;20036;-73
2023/05/30 00:52:13;;;;;;;4.70;2.80;;;16.60;99.90;;;;;;5052547;28;20534;-73
2023/05/30 00:54:44;;;;;;;6.68;2.88;;;16.60;99.90;;;;;;5048742;28;20037;-73
2023/05/30 00:57:10;;;;;;;5.18;2.85;;;16.70;99.90;;;;;;5015575;28;1148523;-73
2023/05/30 00:59:36;;;;;;;6.38;3.38;;;16.60;99.90;;;;;;5053283;28;20075;-73
2023/05/30 01:02:03;;;;;;;4.85;2.40;;;16.50;99.90;;;;;;5055232;28;20108;-73
2023/05/30 01:04:29;;;;;;;7.90;3.00;;;16.50;99.90;;;;;;5048103;28;20037;-73
2023/05/30 01:06:55;;;;;;;4.50;2.45;;;16.40;99.90;;;;;;5050255;28;20033;-73
2023/05/30 01:09:21;;;;;;;6.53;3.05;;;16.50;99.90;;;;;;5052848;28;20036;-73
2023/05/30 01:12:09;;;;;;;5.15;2.42;;;16.50;99.90;;;;;;5052755;28;20082;-73
2023/05/30 01:14:52;;;;;;;5.43;2.67;;;16.40;99.90;;;;;;5054282;28;20034;-73
2023/05/30 01:17:20;;;;;;;5.23;2.83;;;16.40;99.90;;;;;;5058297;28;20418;-73
2023/05/30 01:20:10;;;;;;;9.63;3.22;;;16.30;99.90;;;;;;5053459;28;20503;-73
2023/05/30 01:23:03;;;;;;;7.20;3.00;;;16.30;99.90;;;;;;5048728;28;20403;-73
2023/05/30 01:25:52;;;;;;;7.03;3.08;;;16.30;99.90;;;;;;5050751;28;20041;-73
2023/05/30 01:28:21;;;;;;;6.30;3.08;;;16.30;99.90;;;;;;5053433;28;20033;-73
2023/05/30 01:30:49;;;;;;;6.18;3.42;;;16.30;99.90;;;;;;5058795;28;20872;-73
2023/05/30 01:33:17;;;;;;;6.88;3.00;;;16.30;99.90;;;;;;5051572;28;20025;-73
2023/05/30 01:35:46;;;;;;;6.82;2.92;;;16.30;99.90;;;;;;5049050;28;20079;-73
2023/05/30 01:38:14;;;;;;;5.32;3.17;;;16.30;99.90;;;;;;5052493;28;20036;-73
2023/05/30 01:40:42;;;;;;;5.35;2.88;;;16.40;99.90;;;;;;5049456;28;20037;-73
2023/05/30 01:43:18;;;;;;;5.93;3.03;;;16.20;99.90;;;;;;5050778;28;20031;-73
2023/05/30 01:46:06;;;;;;;6.70;3.10;;;16.30;99.90;;;;;;5051012;28;20069;-73
2023/05/30 01:48:46;;;;;;;5.35;2.95;;;16.40;99.90;;;;;;5051054;28;20040;-73
2023/05/30 01:51:19;;;;;;;7.28;2.78;;;16.30;99.90;;;;;;5053996;28;20490;-73
2023/05/30 01:53:50;;;;;;;6.32;3.22;;;16.30;99.90;;;;;;5048937;28;20078;-73
2023/05/30 01:56:17;;;;;;;6.47;3.15;;;16.30;99.90;;;;;;5051752;28;20115;-73
2023/05/30 01:58:47;;;;;;;7.53;3.47;;;16.50;99.90;;;;;;5051201;28;20028;-73
2023/05/30 02:01:15;;;;;;;7.15;3.13;;;16.50;99.90;;;;;;5050416;28;20083;-73
2023/05/30 02:03:40;;;;;;;7.85;3.92;;;16.50;99.90;;;;;;5059354;28;20025;-73
2023/05/30 02:06:06;;;;;;;6.95;3.25;;;16.70;99.90;;;;;;5053261;28;20491;-73
2023/05/30 02:08:32;;;;;;;6.93;3.63;;;16.70;99.90;;;;;;5048339;28;20037;-73
2023/05/30 02:10:57;;;;;;;6.13;3.17;;;16.60;99.90;;;;;;5050529;28;20029;-74
2023/05/30 02:13:23;;;;;;;6.43;3.20;;;16.40;99.90;;;;;;5050567;28;20056;-73
2023/05/30 02:15:49;;;;;;;7.05;3.13;;;16.40;99.90;;;;;;5050387;28;20741;-73
2023/05/30 02:18:14;;;;;;;9.18;3.85;;;16.30;99.90;;;;;;5060378;28;20024;-73
2023/05/30 02:20:40;;;;;;;6.88;3.35;;;16.30;99.90;;;;;;5049642;28;20055;-73
2023/05/30 02:23:06;;;;;;;5.68;2.97;;;16.20;99.90;;;;;;5049296;28;20062;-73
2023/05/30 02:25:31;;;;;;;5.50;2.83;;;16.30;99.90;;;;;;5049204;28;20422;-73
2023/05/30 02:27:57;;;;;;;7.85;3.67;;;16.20;99.90;;;;;;5050776;28;20391;-73
2023/05/30 02:30:22;;;;;;;6.25;3.13;;;16.20;99.90;;;;;;5049765;28;20027;-73
2023/05/30 02:32:48;;;;;;;6.90;3.38;;;16.20;99.90;;;;;;5056123;28;20037;-73
2023/05/30 02:35:14;;;;;;;6.68;3.03;;;16.30;99.90;;;;;;5050654;28;20122;-73
2023/05/30 02:37:39;;;;;;;6.78;3.10;;;16.30;99.90;;;;;;5050687;28;20037;-73
2023/05/30 02:40:09;;;;;;;7.63;3.75;;;16.20;99.90;;;;;;5049523;28;20033;-73
2023/05/30 02:42:35;;;;;;;8.10;3.58;;;16.10;99.90;;;;;;5051883;28;20027;-73
2023/05/30 02:45:01;;;;;;;6.22;3.55;;;16.00;99.90;;;;;;5048924;28;20029;-73
2023/05/30 02:47:27;;;;;;;6.28;3.63;;;16.10;99.90;;;;;;5047805;28;20037;-73
2023/05/30 02:49:53;;;;;;;8.05;3.47;;;16.10;99.90;;;;;;5048268;28;20029;-73
2023/05/30 02:52:19;;;;;;;7.72;3.20;;;16.10;99.90;;;;;;5054095;28;20021;-73
2023/05/30 02:54:46;;;;;;;6.45;3.30;;;16.00;99.90;;;;;;5054535;28;20116;-73
2023/05/30 02:57:12;;;;;;;7.43;3.70;;;16.10;99.90;;;;;;5052648;28;20052;-73
2023/05/30 02:59:38;;;;;;;6.65;3.40;;;16.10;99.90;;;;;;5047696;28;20033;-74
2023/05/30 03:02:04;;;;;;;5.28;2.70;;;16.10;99.90;;;;;;5053092;28;20523;-72
2023/05/30 03:04:29;;;;;;;6.60;3.03;;;16.20;99.90;;;;;;5049446;28;20035;-72
2023/05/30 03:06:55;;;;;;;6.00;3.28;;;16.20;99.90;;;;;;5044545;28;20116;-73
2023/05/30 03:09:21;;;;;;;5.70;2.85;;;16.20;99.90;;;;;;5047608;28;20029;-72
2023/05/30 03:11:47;;;;;;;10.25;4.15;;;16.20;99.90;;;;;;5044065;28;20036;-72
2023/05/30 03:14:12;;;;;;;5.20;2.80;;;16.10;99.90;;;;;;5046483;28;20521;-73
2023/05/30 03:16:41;;;;;;;6.35;3.78;;;16.10;99.90;;;;;;5044803;28;20028;-73
2023/05/30 03:19:08;;;;;;;6.75;3.65;;;16.10;99.90;;;;;;5042239;28;20032;-73
2023/05/30 03:21:34;;;;;;;5.35;3.15;;;16.10;99.90;;;;;;5048089;28;20029;-72
2023/05/30 03:23:59;;;;;;;8.77;3.83;;;16.00;99.90;;;;;;5047360;28;20025;-73
2023/05/30 03:26:27;;;;;;;5.55;3.25;;;15.90;99.90;;;;;;5044779;28;20045;-72
2023/05/30 03:28:53;;;;;;;6.60;3.08;;;15.90;99.90;;;;;;5047120;28;20114;-73
2023/05/30 03:31:19;;;;;;;6.93;3.15;;;15.80;99.90;;;;;;5051099;28;20067;-73
2023/05/30 03:33:45;;;;;;;5.28;2.97;;;15.70;99.90;;;;;;5044814;28;20028;-73
2023/05/30 03:36:10;;;;;;;7.32;3.67;;;15.70;99.90;;;;;;5046120;28;20025;-74
2023/05/30 03:38:37;;;;;;;7.35;3.92;;;15.60;99.90;;;;;;5049322;28;20717;-73
2023/05/30 03:41:03;;;;;;;7.90;4.00;;;15.50;99.90;;;;;;5044425;28;20124;-73
2023/05/30 03:43:29;;;;;;;7.88;3.60;;;15.40;99.90;;;;;;5048230;28;20033;-73
2023/05/30 03:45:55;;;;;;;7.43;3.45;;;15.40;99.90;;;;;;5045994;28;20037;-72
2023/05/30 03:48:20;;;;;;;7.03;3.75;;;15.40;99.90;;;;;;5048174;28;20025;-73
2023/05/30 03:50:46;;;;;;;6.72;3.83;;;15.40;99.90;;;;;;5053365;28;20564;-73
2023/05/30 03:53:12;;;;;;;8.25;3.53;;;15.50;99.90;;;;;;5059342;28;20028;-73
2023/05/30 03:55:38;;;;;;;6.70;3.58;;;15.40;99.90;;;;;;5045593;28;20978;-73
2023/05/30 03:58:04;;;;;;;8.55;3.30;;;15.40;99.90;;;;;;5048994;28;20025;-73
2023/05/30 04:00:30;;;;;;;6.90;3.92;;;15.40;99.90;;;;;;5055691;28;20027;-73
2023/05/30 04:02:59;;;;;;;6.13;3.13;;;15.50;99.90;;;;;;5044948;28;20032;-73
2023/05/30 04:05:25;;;;;;;7.47;3.28;;;15.40;99.90;;;;;;5046264;28;20045;-73
2023/05/30 04:07:51;;;;;;;5.82;3.17;;;15.40;99.90;;;;;;5046924;28;20021;-73
2023/05/30 04:10:17;;;;;;;6.53;3.28;;;15.40;99.90;;;;;;5054343;28;20032;-73
2023/05/30 04:12:43;;;;;;;6.18;3.20;;;15.40;99.90;;;;;;5053003;28;20482;-73
2023/05/30 04:15:09;;;;;;;7.47;3.70;;;15.40;99.90;;;;;;5045289;28;20344;-73
2023/05/30 04:17:35;;;;;;;6.95;3.95;;;15.40;99.90;;;;;;5049152;28;20035;-73
2023/05/30 04:20:01;;;;;;;10.43;3.90;;;15.40;99.90;;;;;;5048908;28;20029;-73
2023/05/30 04:22:26;;;;;;;7.45;3.42;;;15.40;99.90;;;;;;5047705;28;20040;-74
2023/05/30 04:24:52;;;;;;;7.20;3.75;;;15.30;99.90;;;;;;5049929;28;20028;-73
2023/05/30 04:27:19;;;;;;;9.00;3.35;;;15.30;99.90;;;;;;5048832;28;20025;-73
2023/05/30 04:29:46;;;;;;;7.13;3.85;;;15.40;99.90;;;;;;5044395;28;20025;-73
2023/05/30 04:32:12;;;;;;;7.07;3.42;;;15.40;99.90;;;;;;5043490;28;20048;-73
2023/05/30 04:34:39;;;;;;;7.10;3.30;;;15.40;99.90;;;;;;5046277;28;20636;-73
2023/05/30 04:37:06;;;;;;;7.38;3.55;;;15.30;99.90;;;;;;5051159;28;20025;-73
2023/05/30 04:39:33;;;;;;;8.52;4.28;;;15.30;99.90;;;;;;5048229;28;20123;-73
2023/05/30 04:41:58;;;;;;;8.10;4.00;;;15.30;99.90;;;;;;5045096;28;20516;-73
2023/05/30 04:44:24;;;;;;;7.47;3.30;;;15.30;99.90;;;;;;5044702;28;20029;-73
2023/05/30 04:46:50;;;;;;;9.15;3.85;;;15.30;99.90;;;;;;5049961;28;20045;-73
2023/05/30 04:49:16;;;;;;;8.70;4.20;;;15.10;99.90;;;;;;5047158;28;20382;-73
2023/05/30 04:51:45;;;;;;;6.90;3.35;;;15.10;99.90;;;;;;5043777;28;20076;-74
2023/05/30 04:54:12;;;;;;;9.35;3.45;;;15.10;99.90;;;;;;5050116;28;20127;-74
2023/05/30 04:56:39;;;;;;;10.00;3.72;;;15.00;99.90;;;;;;5042501;28;20125;-74
2023/05/30 04:59:05;;;;;;;7.97;3.50;;;15.00;99.90;;;;;;5050712;28;20025;-72
2023/05/30 05:01:35;;;;;;;7.70;4.18;;;15.10;99.90;;;;;;5040571;28;20597;-72
2023/05/30 05:04:04;;;;;;;7.13;3.53;;;15.20;99.90;;;;;;5043968;28;20121;-73
2023/05/30 05:06:30;;;;;;;6.22;3.72;;;15.20;99.90;;;;;;5045526;28;20491;-74
2023/05/30 05:08:55;;;;;;;6.45;3.65;;;15.40;99.90;;;;;;5049351;28;20032;-72
2023/05/30 05:11:21;;;;;;;8.90;4.13;;;15.50;99.90;;;;;;5046323;28;20056;-72
2023/05/30 05:13:47;;;;;;;7.75;3.83;;;15.60;99.90;;;;;;5052007;28;20025;-72
2023/05/30 05:16:12;;;;;;;6.45;3.60;;;15.70;99.90;;;;;;5041983;28;20417;-72
2023/05/30 05:18:38;;;;;;;7.72;3.97;;;15.80;99.90;;;;;;5045195;28;20029;-72
2023/05/30 05:21:06;;;;;;;12.68;4.35;;;15.90;99.90;;;;;;5048546;28;20031;-72
2023/05/30 05:23:32;;;;;;;7.00;4.10;;;15.90;99.90;;;;;;5048134;28;20062;-72
2023/05/30 05:26:00;;;;;;;9.15;3.38;;;16.10;99.90;;;;;;5041746;28;20041;-73
2023/05/30 05:28:25;;;;;;;7.88;4.15;;;15.90;99.90;;;;;;5051001;28;20028;-75
2023/05/30 05:30:51;;;;;;;12.23;4.25;;;15.90;99.90;;;;;;5049047;28;20043;-74
2023/05/30 05:33:17;;;;;;;6.60;4.00;;;16.00;99.90;;;;;;5047048;28;20033;-74
2023/05/30 05:35:46;;;;;;;12.20;4.20;;;16.10;99.90;;;;;;5043438;28;20056;-74
2023/05/30 05:38:12;;;;;;;7.35;4.47;;;16.20;99.90;;;;;;5049121;28;20029;-74
2023/05/30 05:40:38;;;;;;;7.57;3.17;;;16.30;99.90;;;;;;5050429;28;20107;-75
2023/05/30 05:43:03;;;;;;;8.45;4.15;;;16.50;99.90;;;;;;5046109;28;20119;-72
2023/05/30 05:45:29;;;;;;;8.30;4.35;;;16.70;99.90;;;;;;5046382;28;20041;-72
2023/05/30 05:47:55;;;;;;;9.73;4.00;;;16.70;99.90;;;;;;5042862;28;20739;-73
2023/05/30 05:50:20;;;;;;;9.40;4.40;;;16.80;99.90;;;;;;5049968;28;20126;-73
2023/05/30 05:52:46;;;;;;;8.82;4.43;;;16.80;99.90;;;;;;5040471;28;20146;-73
2023/05/30 05:55:11;;;;;;;9.25;4.40;;;16.90;99.90;;;;;;5045025;28;20450;-74
2023/05/30 05:57:37;;;;;;;8.32;4.15;;;17.00;99.90;;;;;;5043239;28;20043;-73
2023/05/30 06:00:05;;;;;;;6.50;3.47;;;17.10;99.90;;;;;;5047217;28;20102;-73
2023/05/30 06:02:31;;;;;;;7.25;3.72;;;17.20;99.90;;;;;;5043162;28;20380;-73
2023/05/30 06:04:57;;;;;;;7.95;4.03;;;17.30;99.90;;;;;;5047834;28;20036;-73
2023/05/30 06:07:23;;;;;;;7.55;4.13;;;17.30;99.90;;;;;;5048556;28;20104;-73
2023/05/30 06:09:49;;;;;;;7.18;4.30;;;17.40;99.90;;;;;;5045325;28;20623;-73
2023/05/30 06:12:15;;;;;;;9.13;3.70;;;17.30;99.90;;;;;;5041376;28;20075;-73
2023/05/30 06:14:41;;;;;;;8.35;4.22;;;17.20;99.90;;;;;;5045260;28;20108;-73
2023/05/30 06:17:08;;;;;;;7.55;4.43;;;17.40;99.90;;;;;;5047479;28;20633;-73
2023/05/30 06:19:34;;;;;;;8.57;4.28;;;17.40;99.90;;;;;;5047897;28;20033;-73
2023/05/30 06:21:59;;;;;;;6.00;3.63;;;17.70;99.90;;;;;;5043421;28;20025;-73
2023/05/30 06:24:25;;;;;;;7.03;4.00;;;17.80;99.90;;;;;;5040787;28;20702;-73
2023/05/30 06:26:51;;;;;;;9.63;4.85;;;17.90;99.90;;;;;;5041454;28;20040;-73
2023/05/30 06:29:16;;;;;;;8.85;4.65;;;17.90;99.90;;;;;;5042874;28;20665;-73
2023/05/30 06:31:42;;;;;;;8.27;4.30;;;18.00;99.90;;;;;;5039983;28;21385;-73
2023/05/30 06:34:07;;;;;;;6.60;4.25;;;18.00;99.90;;;;;;5042045;28;20036;-73
2023/05/30 06:36:33;;;;;;;8.27;3.38;;;18.00;99.90;;;;;;5052834;28;20062;-73
2023/05/30 06:38:59;;;;;;;7.85;4.07;;;18.10;99.90;;;;;;5045374;28;23982;-73
2023/05/30 06:41:24;;;;;;;8.65;4.05;;;18.20;99.90;;;;;;5042383;28;20044;-73
2023/05/30 06:43:50;;;;;;;5.78;3.55;;;18.40;99.90;;;;;;5050436;28;20028;-73
2023/05/30 06:46:16;;;;;;;7.50;4.15;;;18.50;99.90;;;;;;5046741;28;20408;-73
2023/05/30 06:48:42;;;;;;;8.38;3.75;;;18.60;99.90;;;;;;5042917;28;20029;-73
2023/05/30 06:51:07;;;;;;;7.68;4.45;;;18.80;99.90;;;;;;5050996;28;20017;-73
2023/05/30 06:53:34;;;;;;;7.57;4.25;;;18.90;99.90;;;;;;5042623;28;20285;-74
2023/05/30 06:56:00;;;;;;;7.90;4.90;;;19.00;99.90;;;;;;5040336;28;20391;-73
2023/05/30 06:58:25;;;;;;;8.70;4.13;;;19.10;99.90;;;;;;5043082;28;20037;-75
2023/05/30 07:00:51;;;;;;;7.13;4.53;;;19.10;99.90;;;;;;5047528;28;20028;-75
2023/05/30 07:03:17;;;;;;;6.90;4.15;;;19.20;99.90;;;;;;5050994;28;20593;-73
2023/05/30 07:05:43;;;;;;;7.20;4.53;;;19.40;99.90;;;;;;5047608;28;20091;-76
2023/05/30 07:08:09;;;;;;;6.50;4.10;;;19.40;99.90;;;;;;5043232;28;20043;-76
2023/05/30 07:10:35;;;;;;;7.65;4.35;;;19.50;99.90;;;;;;5040735;28;20033;-74
2023/05/30 07:13:00;;;;;;;9.68;3.92;;;19.50;99.90;;;;;;5040042;28;20590;-74
2023/05/30 07:15:27;;;;;;;8.65;4.47;;;19.90;99.90;;;;;;5046919;28;20541;-72
2023/05/30 07:17:52;;;;;;;7.47;4.13;;;20.20;99.90;;;;;;5045251;28;20029;-75
2023/05/30 07:20:22;;;;;;;6.78;3.97;;;20.50;99.90;;;;;;5059715;28;20536;-74
2023/05/30 07:22:49;;;;;;;7.55;3.20;;;20.70;99.90;;;;;;5046507;28;20021;-73
2023/05/30 07:25:14;;;;;;;6.97;4.43;;;20.60;99.90;;;;;;5047103;28;20051;-73
2023/05/30 07:27:40;;;;;;;8.98;5.15;;;20.50;99.90;;;;;;5044737;28;20957;-74
2023/05/30 07:30:06;;;;;;;7.70;4.63;;;20.30;99.90;;;;;;5044127;28;20025;-74
2023/05/30 07:32:32;;;;;;;6.00;3.42;;;20.20;99.90;;;;;;5043522;28;20090;-77
2023/05/30 07:34:58;;;;;;;8.85;3.83;;;20.50;99.90;;;;;;5060222;28;20128;-74
2023/05/30 07:37:23;;;;;;;8.05;4.38;;;21.10;99.90;;;;;;5044275;28;20024;-76
2023/05/30 07:39:49;;;;;;;6.13;3.70;;;21.80;99.90;;;;;;5048788;28;20119;-75
2023/05/30 07:42:15;;;;;;;12.07;4.40;;;22.70;99.90;;;;;;5044958;28;20036;-77
2023/05/30 07:44:40;;;;;;;9.48;4.03;;;22.70;99.00;;;;;;5044017;28;20025;-75
2023/05/30 07:47:06;;;;;;;8.05;4.38;;;21.60;99.90;;;;;;5048743;28;20040;-75
2023/05/30 07:49:32;;;;;;;14.20;4.95;;;21.50;99.90;;;;;;5045659;28;20037;-77
2023/05/30 07:51:58;;;;;;;6.95;3.47;;;22.20;99.90;;;;;;5047881;28;20418;-74
2023/05/30 07:54:23;;;;;;;8.45;4.30;;;22.70;98.70;;;;;;5047517;28;20075;-77
2023/05/30 07:56:49;;;;;;;6.72;4.45;;;22.70;98.50;;;;;;5044225;28;20077;-76
2023/05/30 07:59:15;;;;;;;7.05;4.40;;;22.60;99.30;;;;;;5046191;28;20171;-75
2023/05/30 08:01:41;;;;;;;6.85;4.18;;;22.30;99.40;;;;;;5047405;28;20077;-76
2023/05/30 08:04:07;;;;;;;7.07;3.78;;;22.10;99.80;;;;;;5043385;28;20047;-75
2023/05/30 08:06:34;;;;;;;8.23;4.25;;;22.20;99.80;;;;;;5043427;28;20584;-76
2023/05/30 08:09:00;;;;;;;7.97;4.13;;;22.20;99.70;;;;;;5046524;28;20650;-78
2023/05/30 08:11:26;;;;;;;12.00;4.60;;;22.40;98.50;;;;;;5046973;28;20037;-77
2023/05/30 08:13:52;;;;;;;9.27;4.40;;;22.40;99.20;;;;;;5045237;28;20459;-79
2023/05/30 08:16:18;;;;;;;12.07;4.15;;;22.40;99.10;;;;;;5044511;28;20033;-77
2023/05/30 08:18:45;;;;;;;7.70;4.70;;;22.60;99.30;;;;;;5051888;28;20021;-78
2023/05/30 08:21:11;;;;;;;7.22;4.07;;;22.50;99.00;;;;;;5055401;28;20114;-79
2023/05/30 08:23:38;;;;;;;8.35;4.47;;;22.20;99.00;;;;;;5042902;28;20032;-79
2023/05/30 08:26:06;;;;;;;7.30;4.90;;;22.40;98.40;;;;;;5043206;28;20580;-79
2023/05/30 08:28:32;;;;;;;7.55;4.50;;;22.40;99.70;;;;;;5043874;28;20877;-78
2023/05/30 08:30:58;;;;;;;9.32;4.60;;;22.40;99.30;;;;;;5043885;28;20048;-79
2023/05/30 08:33:25;;;;;;;8.55;4.55;;;22.10;99.00;;;;;;5042541;28;20122;-79
2023/05/30 08:35:51;;;;;;;8.45;4.55;;;21.90;98.50;;;;;;5043000;28;20033;-79
2023/05/30 08:38:17;;;;;;;7.60;4.10;;;21.70;99.40;;;;;;5047538;28;20070;-78
2023/05/30 08:40:45;;;;;;;9.27;4.72;;;22.10;99.90;;;;;;5051627;28;20067;-79
2023/05/30 08:43:11;;;;;;;8.07;4.75;;;22.10;99.40;;;;;;5043192;28;20029;-79
2023/05/30 08:45:37;;;;;;;8.98;4.88;;;22.10;99.90;;;;;;5047777;28;20037;-79
2023/05/30 08:48:05;;;;;;;7.38;4.60;;;22.20;99.80;;;;;;5044216;28;20104;-79
2023/05/30 08:50:33;;;;;;;8.50;4.32;;;22.10;99.50;;;;;;5049744;28;20028;-79
2023/05/30 08:53:25;;;;;;;7.82;3.97;;;22.10;99.20;;;;;;5046096;28;20071;-79
2023/05/30 08:56:10;;;;;;;8.50;5.63;;;22.30;99.20;;;;;;5041719;28;20118;-77
2023/05/30 08:58:43;;;;;;;9.52;4.72;;;22.40;98.50;;;;;;5044334;28;20047;-76
2023/05/30 09:01:10;;;;;;;10.75;4.07;;;22.60;98.60;;;;;;5042750;28;20020;-76
2023/05/30 09:03:42;;;;;;;7.53;4.40;;;23.30;98.40;;;;;;5043209;28;20108;-75
2023/05/30 09:06:08;;;;;;;7.15;4.43;;;23.60;97.60;;;;;;5043899;28;20690;-76
2023/05/30 09:08:36;;;;;;;8.82;5.03;;;23.60;97.70;;;;;;5048946;28;20033;-76
2023/05/30 09:11:03;;;;;;;6.65;4.30;;;23.70;98.70;;;;;;5043269;28;20021;-76
2023/05/30 09:13:28;;;;;;;9.25;5.18;;;23.50;97.80;;;;;;5046696;28;20546;-76
2023/05/30 09:15:54;;;;;;;7.70;4.63;;;23.10;97.20;;;;;;5046768;28;20047;-76
2023/05/30 09:18:20;;;;;;;8.95;5.13;;;23.00;96.80;;;;;;5042546;28;20387;-76
2023/05/30 09:20:46;;;;;;;10.25;4.72;;;23.00;97.00;;;;;;5045244;28;20879;-76
2023/05/30 09:23:12;;;;;;;7.10;4.47;;;23.10;97.20;;;;;;5044114;28;20128;-76
2023/05/30 09:25:46;;;;;;;8.18;5.32;;;23.30;97.90;;;;;;5042800;28;20036;-75
2023/05/30 09:28:13;;;;;;;8.65;4.50;;;23.20;96.30;;;;;;5044957;28;20127;-76
2023/05/30 09:31:01;;;;;;;7.55;4.05;;;23.10;96.90;;;;;;5047426;28;20032;-76
2023/05/30 09:33:44;;;;;;;7.97;4.35;;;23.10;97.00;;;;;;5044854;28;20177;-76
2023/05/30 09:36:18;;;;;;;8.38;3.80;;;23.00;97.00;;;;;;5043255;28;20040;-76
2023/05/30 09:39:06;;;;;;;7.38;4.97;;;23.10;97.30;;;;;;5048218;28;20028;-76
2023/05/30 09:41:32;;;;;;;7.40;4.43;;;23.30;97.20;;;;;;5043441;28;20033;-76
2023/05/30 09:43:59;;;;;;;8.35;4.60;;;23.80;96.20;;;;;;5042921;28;20104;-76
2023/05/30 09:46:30;;;;;;;8.73;4.72;;;23.70;96.90;;;;;;5040730;28;20036;-76
2023/05/30 09:48:57;;;;;;;7.90;4.43;;;24.00;96.70;;;;;;5040578;28;20079;-76
2023/05/30 09:51:29;;;;;;;7.43;4.25;;;23.80;96.40;;;;;;5060867;28;20552;-76
2023/05/30 09:54:01;;;;;;;7.03;4.40;;;23.90;96.70;;;;;;5053158;28;20028;-76
2023/05/30 09:56:41;;;;;;;9.82;4.30;;;24.10;97.10;;;;;;5045907;28;20052;-76
2023/05/30 09:59:13;;;;;;;17.73;6.32;;;24.20;96.20;;;;;;5045305;28;20025;-76
2023/05/30 10:01:43;;;;;;;20.35;5.18;;;24.10;96.80;;;;;;5042496;28;20683;-76
2023/05/30 10:04:20;;;;;;;17.88;6.40;;;23.80;96.90;;;;;;5044554;28;20036;-76
2023/05/30 10:06:48;;;;;;;13.30;5.60;;;23.90;96.60;;;;;;5044763;28;20063;-76
2023/05/30 10:09:14;;;;;;;14.43;6.40;;;24.10;96.70;;;;;;5049204;28;20115;-76
2023/05/30 10:11:41;;;;;;;15.85;6.72;;;24.30;96.90;;;;;;5044322;28;20556;-76
2023/05/30 10:14:08;;;;;;;12.00;5.18;;;24.40;97.10;;;;;;5044980;28;20136;-76
2023/05/30 10:16:38;;;;;;;9.00;4.85;;;24.40;96.20;;;;;;5044556;28;20043;-76
2023/05/30 10:19:08;;;;;;;21.38;7.90;;;24.10;95.70;;;;;;5046338;28;20112;-76
2023/05/30 10:21:37;;;;;;;7.95;4.75;;;24.00;96.20;;;;;;5049827;28;20028;-77
2023/05/30 10:24:04;;;;;;;9.73;5.32;;;23.60;95.50;;;;;;5049159;28;20096;-76
2023/05/30 10:26:36;;;;;;;8.55;4.70;;;23.90;97.10;;;;;;5045074;28;20068;-76
2023/05/30 10:29:06;;;;;;;7.05;4.40;;;24.10;96.00;;;;;;5040697;28;20132;-76
2023/05/30 10:31:34;;;;;;;8.65;4.70;;;24.30;95.60;;;;;;5044944;28;20091;-76
2023/05/30 10:34:03;;;;;;;8.15;4.15;;;24.30;96.10;;;;;;5054926;28;20013;-76
2023/05/30 10:36:29;;;;;;;7.50;4.40;;;24.30;96.20;;;;;;5042807;28;20063;-76
2023/05/30 10:39:15;;;;;;;7.10;4.47;;;24.10;96.50;;;;;;5040444;28;20021;-76
2023/05/30 10:42:05;;;;;;;9.38;4.38;;;24.10;96.70;;;;;;5045848;28;20859;-76
2023/05/30 10:44:42;;;;;;;6.97;4.50;;;24.10;96.50;;;;;;5043965;28;20029;-76
2023/05/30 10:47:23;;;;;;;7.88;4.57;;;24.30;97.00;;;;;;5042670;28;20040;-76
2023/05/30 10:49:49;;;;;;;7.03;4.65;;;24.60;96.70;;;;;;5050190;28;20028;-77
2023/05/30 10:52:17;;;;;;;9.35;4.65;;;24.50;97.00;;;;;;5049390;28;20032;-76
2023/05/30 10:54:46;;;;;;;8.32;4.30;;;24.50;96.30;;;;;;5042598;28;20091;-76
2023/05/30 10:57:27;;;;;;;7.13;4.20;;;24.50;97.00;;;;;;5040143;28;20041;-76
2023/05/30 11:00:16;;;;;;;8.00;4.05;;;24.60;95.10;;;;;;5044501;28;20025;-76
2023/05/30 11:02:43;;;;;;;7.43;4.45;;;24.40;96.00;;;;;;5049893;28;20029;-76
2023/05/30 11:05:10;;;;;;;9.27;4.45;;;25.00;96.40;;;;;;5058253;28;20033;-76
2023/05/30 11:07:41;;;;;;;6.78;3.92;;;25.20;95.50;;;;;;5048305;28;20059;-76
2023/05/30 11:10:11;;;;;;;6.82;4.57;;;25.50;95.50;;;;;;5048118;28;20045;-77
2023/05/30 11:12:44;;;;;;;7.32;3.92;;;26.00;95.00;;;;;;5048358;28;20032;-77
2023/05/30 11:15:15;;;;;;;7.93;3.92;;;26.20;94.10;;;;;;5049216;28;20086;-77
2023/05/30 11:17:41;;;;;;;7.80;3.75;;;26.10;94.50;;;;;;5048479;28;20440;-77
2023/05/30 11:20:16;;;;;;;6.80;3.85;;;26.20;95.00;;;;;;5045655;28;20064;-77
2023/05/30 11:23:02;;;;;;;11.20;3.83;;;26.30;94.40;;;;;;5047633;28;20124;-77
2023/05/30 11:25:32;;;;;;;8.90;3.88;;;26.10;93.70;;;;;;5035242;28;20140;-77
2023/05/30 11:28:04;;;;;;;8.63;4.30;;;26.10;93.90;;;;;;5047447;28;20112;-77
2023/05/30 11:30:31;;;;;;;6.60;4.10;;;26.00;92.90;;;;;;5048442;28;20021;-77
2023/05/30 11:32:59;;;;;;;6.95;4.10;;;26.30;92.70;;;;;;5047106;28;20345;-77
2023/05/30 11:35:26;;;;;;;8.30;4.28;;;26.10;92.30;;;;;;5047641;28;20048;-77
2023/05/30 11:37:53;;;;;;;7.13;4.13;;;26.10;93.60;;;;;;5056523;28;20028;-76
2023/05/30 11:40:21;;;;;;;7.82;3.65;;;26.10;94.10;;;;;;5047054;28;20086;-76
2023/05/30 11:42:51;;;;;;;5.95;4.00;;;25.80;91.90;;;;;;5047428;28;20032;-77
2023/05/30 11:45:18;;;;;;;11.55;4.50;;;26.00;92.00;;;;;;5050248;28;20044;-76
2023/05/30 11:47:45;;;;;;;9.27;4.20;;;26.20;93.20;;;;;;5048147;28;20032;-77
2023/05/30 11:50:11;;;;;;;6.25;4.00;;;26.40;92.50;;;;;;5049498;28;20032;-77
2023/05/30 11:52:40;;;;;;;7.47;4.13;;;26.50;92.70;;;;;;5062258;28;20140;-77
2023/05/30 11:55:06;;;;;;;8.95;4.40;;;26.40;93.50;;;;;;5049613;28;23982;-77
2023/05/30 11:57:32;;;;;;;8.73;4.82;;;25.80;92.90;;;;;;5043875;28;20035;-77
2023/05/30 11:59:58;;;;;;;6.93;4.90;;;25.70;93.10;;;;;;5054465;28;20028;-77
2023/05/30 12:02:31;;;;;;;8.15;4.60;;;26.00;93.70;;;;;;5052586;28;20043;-77
2023/05/30 12:05:03;;;;;;;6.00;3.83;;;26.50;93.10;;;;;;5051496;28;20033;-77
2023/05/30 12:07:32;;;;;;;8.20;4.93;;;26.20;93.30;;;;;;5052064;28;20344;-77
2023/05/30 12:09:57;;;;;;;7.78;4.22;;;26.40;93.00;;;;;;5045302;28;20127;-77
2023/05/30 12:12:23;;;;;;;6.07;4.20;;;26.50;93.20;;;;;;5047009;28;20493;-77
2023/05/30 12:14:53;;;;;;;8.90;5.05;;;26.30;93.50;;;;;;5044249;28;20029;-77
2023/05/30 12:17:24;;;;;;;9.10;4.53;;;26.00;93.20;;;;;;5055199;28;20036;-77
2023/05/30 12:20:00;;;;;;;9.48;4.80;;;26.40;93.50;;;;;;5049658;28;20025;-77
2023/05/30 12:22:30;;;;;;;9.48;5.18;;;26.50;93.40;;;;;;5043602;28;20033;-77
2023/05/30 12:24:56;;;;;;;9.98;5.25;;;25.80;92.80;;;;;;5052643;28;20095;-77
2023/05/30 12:27:25;;;;;;;10.27;5.10;;;25.80;93.10;;;;;;5048811;28;20654;-77
2023/05/30 12:29:51;;;;;;;8.50;5.72;;;26.00;93.70;;;;;;5042990;28;20510;-77
2023/05/30 12:32:24;;;;;;;9.68;5.68;;;26.10;93.70;;;;;;5043158;28;20090;-77
2023/05/30 12:34:52;;;;;;;7.63;4.90;;;25.90;93.50;;;;;;5048707;28;20024;-77
2023/05/30 12:37:18;;;;;;;8.45;4.60;;;25.80;93.50;;;;;;5049979;28;20124;-77
2023/05/30 12:39:56;;;;;;;9.98;5.18;;;25.80;93.10;;;;;;5050612;28;20044;-75
2023/05/30 12:42:27;;;;;;;11.55;5.47;;;25.60;92.70;;;;;;5048572;28;20478;-75
2023/05/30 12:44:57;;;;;;;11.40;5.55;;;25.50;92.80;;;;;;5048666;28;20033;-75
2023/05/30 12:47:24;;;;;;;12.25;5.15;;;25.60;93.20;;;;;;5046570;28;20501;-75
2023/05/30 12:49:50;;;;;;;11.15;5.95;;;25.60;93.80;;;;;;5044905;28;20036;-76